sensor_id;sensor_type;location;lat;lon;timestamp;pressure;altitude;pressure_sealevel;temperature;humidity
50250;BME280;36133;42.522;27.456;2023-03-13T00:01:26;101695.47;;;9.03;53.33
50250;BME280;36133;42.522;27.456;2023-03-13T00:03:52;101789.53;;;9.67;52.61
50250;BME280;36133;42.522;27.456;2023-03-13T00:06:20;101587.41;;;8.70;51.70
50250;BME280;36133;42.522;27.456;2023-03-13T00:08:46;101615.19;;;8.71;51.84
50250;BME280;36133;42.522;27.456;2023-03-13T00:11:13;101714.16;;;9.04;51.97
50250;BME280;36133;42.522;27.456;2023-03-13T00:13:40;101799.41;;;9.23;53.04
50250;BME280;36133;42.522;27.456;2023-03-13T00:16:14;101706.41;;;9.01;52.17
50250;BME280;36133;42.522;27.456;2023-03-13T00:18:47;101761.59;;;9.51;51.21
50250;BME280;36133;42.522;27.456;2023-03-13T00:21:14;101738.03;;;8.99;51.38
50250;BME280;36133;42.522;27.456;2023-03-13T00:23:40;101736.84;;;8.84;51.89
50250;BME280;36133;42.522;27.456;2023-03-13T00:26:07;101756.41;;;8.86;51.82
50250;BME280;36133;42.522;27.456;2023-03-13T00:28:35;101732.78;;;8.52;51.66
50250;BME280;36133;42.522;27.456;2023-03-13T00:31:03;101689.56;;;8.17;52.42
50250;BME280;36133;42.522;27.456;2023-03-13T00:33:34;101786.66;;;8.70;51.92
50250;BME280;36133;42.522;27.456;2023-03-13T00:36:01;101752.78;;;8.50;52.27
50250;BME280;36133;42.522;27.456;2023-03-13T00:38:28;101551.66;;;7.13;52.39
50250;BME280;36133;42.522;27.456;2023-03-13T00:41:01;101670.03;;;7.87;52.36
50250;BME280;36133;42.522;27.456;2023-03-13T00:43:27;101690.91;;;8.03;51.96
50250;BME280;36133;42.522;27.456;2023-03-13T00:45:52;101744.81;;;8.11;52.57
50250;BME280;36133;42.522;27.456;2023-03-13T00:48:18;101625.69;;;7.45;52.71
50250;BME280;36133;42.522;27.456;2023-03-13T00:50:43;101796.56;;;8.42;53.06
50250;BME280;36133;42.522;27.456;2023-03-13T00:53:09;101612.88;;;7.29;52.68
50250;BME280;36133;42.522;27.456;2023-03-13T00:55:34;101683.44;;;7.41;54.17
50250;BME280;36133;42.522;27.456;2023-03-13T00:58:00;101668.31;;;7.30;54.36
50250;BME280;36133;42.522;27.456;2023-03-13T01:00:25;101745.59;;;7.84;55.65
50250;BME280;36133;42.522;27.456;2023-03-13T01:02:51;101687.81;;;7.51;56.44
50250;BME280;36133;42.522;27.456;2023-03-13T01:05:16;101705.72;;;7.51;56.94
50250;BME280;36133;42.522;27.456;2023-03-13T01:07:42;101600.44;;;7.18;56.25
50250;BME280;36133;42.522;27.456;2023-03-13T01:10:08;101645.91;;;7.49;56.02
50250;BME280;36133;42.522;27.456;2023-03-13T01:12:33;101665.41;;;7.60;55.82
50250;BME280;36133;42.522;27.456;2023-03-13T01:14:59;101550.25;;;7.19;55.58
50250;BME280;36133;42.522;27.456;2023-03-13T01:17:24;101735.47;;;8.52;54.01
50250;BME280;36133;42.522;27.456;2023-03-13T01:19:50;101707.94;;;8.59;53.47
50250;BME280;36133;42.522;27.456;2023-03-13T01:22:15;101746.09;;;8.54;53.57
50250;BME280;36133;42.522;27.456;2023-03-13T01:24:41;101802.03;;;9.15;52.63
50250;BME280;36133;42.522;27.456;2023-03-13T01:27:06;101683.53;;;8.42;52.59
50250;BME280;36133;42.522;27.456;2023-03-13T01:29:32;101737.63;;;8.49;52.44
50250;BME280;36133;42.522;27.456;2023-03-13T01:31:57;101762.59;;;8.69;52.27
50250;BME280;36133;42.522;27.456;2023-03-13T01:34:23;101710.72;;;8.12;52.21
50250;BME280;36133;42.522;27.456;2023-03-13T01:36:48;101809.47;;;8.48;52.60
50250;BME280;36133;42.522;27.456;2023-03-13T01:39:16;101790.75;;;8.47;52.35
50250;BME280;36133;42.522;27.456;2023-03-13T01:41:41;101561.91;;;6.32;55.27
50250;BME280;36133;42.522;27.456;2023-03-13T01:44:56;101818.47;;;8.01;54.98
50250;BME280;36133;42.522;27.456;2023-03-13T01:47:22;101814.78;;;7.92;55.98
50250;BME280;36133;42.522;27.456;2023-03-13T01:49:49;101747.59;;;7.63;55.45
50250;BME280;36133;42.522;27.456;2023-03-13T01:54:56;101830.56;;;8.34;54.37
50250;BME280;36133;42.522;27.456;2023-03-13T01:57:36;101704.88;;;7.50;55.04
50250;BME280;36133;42.522;27.456;2023-03-13T02:00:10;101820.47;;;7.79;56.62
50250;BME280;36133;42.522;27.456;2023-03-13T02:02:39;101828.03;;;8.22;54.99
50250;BME280;36133;42.522;27.456;2023-03-13T02:05:06;101649.19;;;7.33;54.76
50250;BME280;36133;42.522;27.456;2023-03-13T02:07:46;101728.25;;;7.30;55.17
50250;BME280;36133;42.522;27.456;2023-03-13T02:10:13;101860.81;;;8.65;53.58
50250;BME280;36133;42.522;27.456;2023-03-13T02:12:42;101763.16;;;7.50;54.25
50250;BME280;36133;42.522;27.456;2023-03-13T02:15:10;101679.34;;;7.27;53.62
50250;BME280;36133;42.522;27.456;2023-03-13T02:17:38;101871.47;;;8.57;53.34
50250;BME280;36133;42.522;27.456;2023-03-13T02:20:05;101846.00;;;8.32;53.42
50250;BME280;36133;42.522;27.456;2023-03-13T02:22:46;101884.22;;;8.55;53.13
50250;BME280;36133;42.522;27.456;2023-03-13T02:27:56;101858.63;;;8.31;53.83
50250;BME280;36133;42.522;27.456;2023-03-13T02:30:23;101827.53;;;7.90;54.28
50250;BME280;36133;42.522;27.456;2023-03-13T02:32:49;101706.88;;;7.39;53.38
50250;BME280;36133;42.522;27.456;2023-03-13T02:35:16;101665.91;;;7.17;53.12
50250;BME280;36133;42.522;27.456;2023-03-13T02:37:45;101676.78;;;6.87;53.52
50250;BME280;36133;42.522;27.456;2023-03-13T02:40:14;101853.28;;;7.83;53.91
50250;BME280;36133;42.522;27.456;2023-03-13T02:42:42;101873.94;;;7.73;54.97
50250;BME280;36133;42.522;27.456;2023-03-13T02:45:12;101789.59;;;7.25;54.11
50250;BME280;36133;42.522;27.456;2023-03-13T02:47:38;101778.97;;;6.95;55.20
50250;BME280;36133;42.522;27.456;2023-03-13T02:50:03;101887.84;;;7.87;54.34
50250;BME280;36133;42.522;27.456;2023-03-13T02:52:36;101795.22;;;6.93;55.43
50250;BME280;36133;42.522;27.456;2023-03-13T02:55:21;101914.69;;;7.58;54.72
50250;BME280;36133;42.522;27.456;2023-03-13T02:57:47;101836.72;;;7.29;54.21
50250;BME280;36133;42.522;27.456;2023-03-13T03:00:14;101881.28;;;7.61;53.82
50250;BME280;36133;42.522;27.456;2023-03-13T03:02:42;101926.44;;;7.86;54.04
50250;BME280;36133;42.522;27.456;2023-03-13T03:05:09;101704.72;;;6.55;53.92
50250;BME280;36133;42.522;27.456;2023-03-13T03:07:35;101743.59;;;6.90;52.96
50250;BME280;36133;42.522;27.456;2023-03-13T03:10:01;101673.78;;;6.11;54.23
50250;BME280;36133;42.522;27.456;2023-03-13T03:12:26;101909.19;;;7.70;53.92
50250;BME280;36133;42.522;27.456;2023-03-13T03:14:52;101858.06;;;6.81;56.20
50250;BME280;36133;42.522;27.456;2023-03-13T03:17:17;101737.69;;;6.06;57.08
50250;BME280;36133;42.522;27.456;2023-03-13T03:19:43;101843.31;;;7.06;55.83
50250;BME280;36133;42.522;27.456;2023-03-13T03:22:08;101836.34;;;6.94;56.17
50250;BME280;36133;42.522;27.456;2023-03-13T03:24:34;101706.75;;;6.42;54.87
50250;BME280;36133;42.522;27.456;2023-03-13T03:27:00;101764.56;;;6.96;54.30
50250;BME280;36133;42.522;27.456;2023-03-13T03:29:25;101742.31;;;6.74;54.05
50250;BME280;36133;42.522;27.456;2023-03-13T03:31:52;101738.50;;;6.67;54.05
50250;BME280;36133;42.522;27.456;2023-03-13T03:34:17;101963.13;;;7.38;56.24
50250;BME280;36133;42.522;27.456;2023-03-13T03:36:43;101918.47;;;7.46;55.17
50250;BME280;36133;42.522;27.456;2023-03-13T03:39:08;101792.19;;;6.67;55.44
50250;BME280;36133;42.522;27.456;2023-03-13T03:41:34;101831.28;;;7.10;55.08
50250;BME280;36133;42.522;27.456;2023-03-13T03:44:01;101920.50;;;7.83;54.75
50250;BME280;36133;42.522;27.456;2023-03-13T03:46:27;101809.00;;;7.29;53.29
50250;BME280;36133;42.522;27.456;2023-03-13T03:48:52;101838.41;;;7.30;54.19
50250;BME280;36133;42.522;27.456;2023-03-13T03:51:19;101967.41;;;8.19;54.06
50250;BME280;36133;42.522;27.456;2023-03-13T03:53:45;101929.72;;;7.80;54.14
50250;BME280;36133;42.522;27.456;2023-03-13T03:56:10;101732.88;;;6.40;54.81
50250;BME280;36133;42.522;27.456;2023-03-13T03:58:36;101882.81;;;7.34;54.37
50250;BME280;36133;42.522;27.456;2023-03-13T04:01:02;101849.91;;;7.02;54.69
50250;BME280;36133;42.522;27.456;2023-03-13T04:03:27;101922.50;;;7.90;53.48
50250;BME280;36133;42.522;27.456;2023-03-13T04:05:53;101922.88;;;7.07;55.46
50250;BME280;36133;42.522;27.456;2023-03-13T04:08:18;101924.03;;;7.54;53.97
50250;BME280;36133;42.522;27.456;2023-03-13T04:10:44;101979.81;;;7.81;53.84
50250;BME280;36133;42.522;27.456;2023-03-13T04:13:10;101744.59;;;6.39;53.61
50250;BME280;36133;42.522;27.456;2023-03-13T04:15:40;101860.22;;;7.66;52.40
50250;BME280;36133;42.522;27.456;2023-03-13T04:18:06;101896.88;;;7.86;51.27
50250;BME280;36133;42.522;27.456;2023-03-13T04:20:31;101632.38;;;5.94;52.24
50250;BME280;36133;42.522;27.456;2023-03-13T04:22:57;101741.06;;;6.38;53.57
50250;BME280;36133;42.522;27.456;2023-03-13T04:25:22;101899.75;;;7.16;54.11
50250;BME280;36133;42.522;27.456;2023-03-13T04:27:48;101725.66;;;5.38;55.65
50250;BME280;36133;42.522;27.456;2023-03-13T04:30:13;101722.72;;;5.62;54.98
50250;BME280;36133;42.522;27.456;2023-03-13T04:32:39;101881.09;;;7.24;53.42
50250;BME280;36133;42.522;27.456;2023-03-13T04:35:05;101697.69;;;5.72;54.18
50250;BME280;36133;42.522;27.456;2023-03-13T04:37:30;101967.56;;;7.08;54.45
50250;BME280;36133;42.522;27.456;2023-03-13T04:39:56;101845.06;;;6.86;53.04
50250;BME280;36133;42.522;27.456;2023-03-13T04:42:21;101977.19;;;7.41;54.01
50250;BME280;36133;42.522;27.456;2023-03-13T04:44:47;101739.84;;;5.91;53.84
50250;BME280;36133;42.522;27.456;2023-03-13T04:47:12;101788.38;;;6.39;52.95
50250;BME280;36133;42.522;27.456;2023-03-13T04:49:38;101807.47;;;6.46;53.53
50250;BME280;36133;42.522;27.456;2023-03-13T04:52:04;101981.97;;;7.87;52.68
50250;BME280;36133;42.522;27.456;2023-03-13T04:54:29;102018.25;;;7.53;53.76
50250;BME280;36133;42.522;27.456;2023-03-13T04:56:55;101966.09;;;7.34;53.87
50250;BME280;36133;42.522;27.456;2023-03-13T04:59:20;101832.59;;;6.75;53.24
50250;BME280;36133;42.522;27.456;2023-03-13T05:01:46;101769.28;;;6.33;52.66
50250;BME280;36133;42.522;27.456;2023-03-13T05:04:11;101758.66;;;6.22;53.47
50250;BME280;36133;42.522;27.456;2023-03-13T05:06:37;101787.47;;;6.60;52.50
50250;BME280;36133;42.522;27.456;2023-03-13T05:09:03;102030.69;;;8.33;51.93
50250;BME280;36133;42.522;27.456;2023-03-13T05:11:29;101915.72;;;7.77;51.31
50250;BME280;36133;42.522;27.456;2023-03-13T05:13:55;101796.81;;;7.34;51.16
50250;BME280;36133;42.522;27.456;2023-03-13T05:16:20;102030.75;;;8.42;51.40
50250;BME280;36133;42.522;27.456;2023-03-13T05:18:46;102011.59;;;8.16;52.01
50250;BME280;36133;42.522;27.456;2023-03-13T05:21:11;102013.44;;;8.26;51.73
50250;BME280;36133;42.522;27.456;2023-03-13T05:23:37;101920.53;;;7.92;50.53
50250;BME280;36133;42.522;27.456;2023-03-13T05:26:02;101946.44;;;8.42;50.16
50250;BME280;36133;42.522;27.456;2023-03-13T05:28:28;101749.75;;;7.30;50.06
50250;BME280;36133;42.522;27.456;2023-03-13T05:30:54;102050.75;;;9.25;49.60
50250;BME280;36133;42.522;27.456;2023-03-13T05:33:19;102018.13;;;9.19;49.39
50250;BME280;36133;42.522;27.456;2023-03-13T05:35:45;102057.66;;;9.47;49.36
50250;BME280;36133;42.522;27.456;2023-03-13T05:38:12;102062.81;;;10.23;47.81
50250;BME280;36133;42.522;27.456;2023-03-13T05:40:38;101992.47;;;10.42;46.49
50250;BME280;36133;42.522;27.456;2023-03-13T05:43:04;102006.25;;;11.35;44.99
50250;BME280;36133;42.522;27.456;2023-03-13T05:45:29;102059.25;;;12.30;43.65
50250;BME280;36133;42.522;27.456;2023-03-13T05:47:55;101934.25;;;11.76;43.36
50250;BME280;36133;42.522;27.456;2023-03-13T05:50:23;101951.81;;;11.72;42.62
50250;BME280;36133;42.522;27.456;2023-03-13T05:52:49;102050.44;;;11.78;43.83
50250;BME280;36133;42.522;27.456;2023-03-13T05:55:15;102059.25;;;11.80;43.78
50250;BME280;36133;42.522;27.456;2023-03-13T05:57:45;102073.41;;;11.73;44.76
50250;BME280;36133;42.522;27.456;2023-03-13T06:00:12;102066.06;;;12.99;42.36
50250;BME280;36133;42.522;27.456;2023-03-13T06:02:38;102050.41;;;12.12;42.71
50250;BME280;36133;42.522;27.456;2023-03-13T06:05:04;102044.41;;;12.75;41.94
50250;BME280;36133;42.522;27.456;2023-03-13T06:07:29;102083.53;;;13.21;41.59
50250;BME280;36133;42.522;27.456;2023-03-13T06:09:55;102067.63;;;13.73;40.55
50250;BME280;36133;42.522;27.456;2023-03-13T06:12:20;102008.75;;;13.74;40.39
50250;BME280;36133;42.522;27.456;2023-03-13T06:14:46;102068.34;;;14.06;40.18
50250;BME280;36133;42.522;27.456;2023-03-13T06:17:12;101904.16;;;14.84;38.29
50250;BME280;36133;42.522;27.456;2023-03-13T06:19:37;101943.50;;;14.13;38.35
50250;BME280;36133;42.522;27.456;2023-03-13T06:22:03;102074.72;;;16.95;36.09
50250;BME280;36133;42.522;27.456;2023-03-13T06:24:28;102011.91;;;17.93;34.21
50250;BME280;36133;42.522;27.456;2023-03-13T06:26:54;101870.00;;;16.76;33.83
50250;BME280;36133;42.522;27.456;2023-03-13T06:29:19;102069.38;;;16.08;36.59
50250;BME280;36133;42.522;27.456;2023-03-13T06:31:45;102089.59;;;15.40;37.86
50250;BME280;36133;42.522;27.456;2023-03-13T06:34:11;102078.25;;;16.32;37.37
50250;BME280;36133;42.522;27.456;2023-03-13T06:36:37;102092.97;;;18.27;34.63
50250;BME280;36133;42.522;27.456;2023-03-13T06:39:03;102047.88;;;19.30;32.12
50250;BME280;36133;42.522;27.456;2023-03-13T06:41:28;101882.13;;;17.08;34.34
50250;BME280;36133;42.522;27.456;2023-03-13T06:43:54;102015.19;;;18.29;33.57
50250;BME280;36133;42.522;27.456;2023-03-13T06:46:22;101889.94;;;17.65;33.93
50250;BME280;36133;42.522;27.456;2023-03-13T06:48:49;101988.56;;;18.91;32.99
50250;BME280;36133;42.522;27.456;2023-03-13T06:51:16;102014.97;;;18.24;33.91
50250;BME280;36133;42.522;27.456;2023-03-13T06:53:42;102028.72;;;18.64;32.60
50250;BME280;36133;42.522;27.456;2023-03-13T06:56:08;102012.13;;;17.50;34.16
50250;BME280;36133;42.522;27.456;2023-03-13T06:58:35;102103.19;;;17.36;35.89
50250;BME280;36133;42.522;27.456;2023-03-13T07:01:12;102092.44;;;15.09;38.32
50250;BME280;36133;42.522;27.456;2023-03-13T07:03:38;102106.69;;;14.43;39.89
50250;BME280;36133;42.522;27.456;2023-03-13T07:06:04;102075.19;;;13.47;40.36
50250;BME280;36133;42.522;27.456;2023-03-13T07:08:30;102077.09;;;13.22;41.75
50250;BME280;36133;42.522;27.456;2023-03-13T07:11:02;102083.03;;;12.85;41.45
50250;BME280;36133;42.522;27.456;2023-03-13T07:13:29;101763.03;;;11.25;40.68
50250;BME280;36133;42.522;27.456;2023-03-13T07:15:54;102065.69;;;13.90;39.08
50250;BME280;36133;42.522;27.456;2023-03-13T07:18:21;102115.63;;;13.81;38.75
50250;BME280;36133;42.522;27.456;2023-03-13T07:20:54;101964.34;;;13.19;36.33
50250;BME280;36133;42.522;27.456;2023-03-13T07:23:21;102079.59;;;13.95;36.99
50250;BME280;36133;42.522;27.456;2023-03-13T07:26:01;102084.44;;;14.08;38.47
50250;BME280;36133;42.522;27.456;2023-03-13T07:28:28;101923.25;;;14.47;35.74
50250;BME280;36133;42.522;27.456;2023-03-13T07:31:03;101915.59;;;16.60;31.18
50250;BME280;36133;42.522;27.456;2023-03-13T07:33:29;102007.06;;;16.20;31.48
50250;BME280;36133;42.522;27.456;2023-03-13T07:35:55;102117.25;;;16.32;32.78
50250;BME280;36133;42.522;27.456;2023-03-13T07:38:20;101987.66;;;16.30;31.15
50250;BME280;36133;42.522;27.456;2023-03-13T07:40:50;102116.09;;;18.79;29.78
50250;BME280;36133;42.522;27.456;2023-03-13T07:43:16;102069.78;;;19.17;28.51
50250;BME280;36133;42.522;27.456;2023-03-13T07:46:02;102037.78;;;19.17;27.71
50250;BME280;36133;42.522;27.456;2023-03-13T07:48:30;102110.75;;;19.96;26.46
50250;BME280;36133;42.522;27.456;2023-03-13T07:50:57;102119.41;;;19.86;26.01
50250;BME280;36133;42.522;27.456;2023-03-13T07:53:23;102113.69;;;20.01;25.32
50250;BME280;36133;42.522;27.456;2023-03-13T07:55:52;101979.75;;;20.43;24.76
50250;BME280;36133;42.522;27.456;2023-03-13T07:58:18;102103.72;;;20.13;25.58
50250;BME280;36133;42.522;27.456;2023-03-13T08:00:44;102121.75;;;20.41;25.26
50250;BME280;36133;42.522;27.456;2023-03-13T08:03:09;101977.72;;;21.06;24.24
50250;BME280;36133;42.522;27.456;2023-03-13T08:05:35;102115.63;;;20.45;26.17
50250;BME280;36133;42.522;27.456;2023-03-13T08:08:00;102068.47;;;19.59;27.16
50250;BME280;36133;42.522;27.456;2023-03-13T08:10:26;102096.19;;;19.96;26.80
50250;BME280;36133;42.522;27.456;2023-03-13T08:12:51;102095.25;;;20.66;25.04
50250;BME280;36133;42.522;27.456;2023-03-13T08:15:17;102099.91;;;21.65;24.44
50250;BME280;36133;42.522;27.456;2023-03-13T08:17:45;102108.41;;;21.82;25.25
50250;BME280;36133;42.522;27.456;2023-03-13T08:20:14;102109.00;;;21.66;25.42
50250;BME280;36133;42.522;27.456;2023-03-13T08:22:40;102108.09;;;21.72;25.03
50250;BME280;36133;42.522;27.456;2023-03-13T08:25:05;102060.47;;;20.15;26.40
50250;BME280;36133;42.522;27.456;2023-03-13T08:27:31;102108.31;;;21.27;24.84
50250;BME280;36133;42.522;27.456;2023-03-13T08:29:56;102111.00;;;19.88;26.40
50250;BME280;36133;42.522;27.456;2023-03-13T08:32:22;102110.16;;;20.77;25.96
50250;BME280;36133;42.522;27.456;2023-03-13T08:34:48;102106.63;;;22.25;24.65
50250;BME280;36133;42.522;27.456;2023-03-13T08:37:16;102093.94;;;23.60;23.86
50250;BME280;36133;42.522;27.456;2023-03-13T08:39:42;102109.59;;;23.36;23.97
50250;BME280;36133;42.522;27.456;2023-03-13T08:42:11;102067.41;;;22.59;24.09
50250;BME280;36133;42.522;27.456;2023-03-13T08:44:38;102105.34;;;23.64;23.86
50250;BME280;36133;42.522;27.456;2023-03-13T08:47:07;102112.63;;;22.51;24.06
50250;BME280;36133;42.522;27.456;2023-03-13T08:49:33;102119.53;;;21.87;25.12
50250;BME280;36133;42.522;27.456;2023-03-13T08:51:58;102096.34;;;21.15;26.49
50250;BME280;36133;42.522;27.456;2023-03-13T08:54:25;101901.16;;;20.98;24.83
50250;BME280;36133;42.522;27.456;2023-03-13T08:56:51;101964.97;;;18.70;27.82
50250;BME280;36133;42.522;27.456;2023-03-13T08:59:16;102115.25;;;20.73;26.58
50250;BME280;36133;42.522;27.456;2023-03-13T09:01:42;102043.84;;;21.30;25.04
50250;BME280;36133;42.522;27.456;2023-03-13T09:04:08;102102.56;;;23.52;22.25
50250;BME280;36133;42.522;27.456;2023-03-13T09:06:34;101965.53;;;21.21;23.91
50250;BME280;36133;42.522;27.456;2023-03-13T09:09:01;102138.06;;;22.17;24.48
50250;BME280;36133;42.522;27.456;2023-03-13T09:11:31;102110.09;;;22.80;22.71
50250;BME280;36133;42.522;27.456;2023-03-13T09:13:56;102122.59;;;22.34;23.37
50250;BME280;36133;42.522;27.456;2023-03-13T09:16:29;102109.91;;;22.93;22.57
50250;BME280;36133;42.522;27.456;2023-03-13T09:18:56;101956.25;;;21.88;22.67
50250;BME280;36133;42.522;27.456;2023-03-13T09:21:27;101903.47;;;20.95;23.96
50250;BME280;36133;42.522;27.456;2023-03-13T09:23:53;102118.63;;;20.75;25.45
50250;BME280;36133;42.522;27.456;2023-03-13T09:26:20;102105.78;;;18.87;26.91
50250;BME280;36133;42.522;27.456;2023-03-13T09:28:46;102119.00;;;21.11;25.57
50250;BME280;36133;42.522;27.456;2023-03-13T09:31:17;101999.97;;;21.42;25.04
50250;BME280;36133;42.522;27.456;2023-03-13T09:33:44;102110.50;;;21.80;25.21
50250;BME280;36133;42.522;27.456;2023-03-13T09:36:10;102122.53;;;22.22;24.78
50250;BME280;36133;42.522;27.456;2023-03-13T09:38:37;101988.81;;;23.45;22.89
50250;BME280;36133;42.522;27.456;2023-03-13T09:41:28;102065.63;;;23.18;23.89
50250;BME280;36133;42.522;27.456;2023-03-13T09:44:20;102134.66;;;21.78;25.08
50250;BME280;36133;42.522;27.456;2023-03-13T09:49:35;102131.59;;;21.86;25.55
50250;BME280;36133;42.522;27.456;2023-03-13T09:52:17;102132.22;;;21.20;26.74
50250;BME280;36133;42.522;27.456;2023-03-13T09:54:57;102088.16;;;20.84;26.62
50250;BME280;36133;42.522;27.456;2023-03-13T10:00:11;102091.66;;;19.43;28.75
50250;BME280;36133;42.522;27.456;2023-03-13T10:02:43;101994.41;;;19.14;29.43
50250;BME280;36133;42.522;27.456;2023-03-13T10:07:41;102059.47;;;19.19;28.27
50250;BME280;36133;42.522;27.456;2023-03-13T10:10:15;102129.59;;;19.20;30.30
50250;BME280;36133;42.522;27.456;2023-03-13T10:12:47;102122.59;;;21.61;27.03
50250;BME280;36133;42.522;27.456;2023-03-13T10:15:38;102105.31;;;21.54;26.56
50250;BME280;36133;42.522;27.456;2023-03-13T10:18:22;102073.13;;;21.61;26.96
50250;BME280;36133;42.522;27.456;2023-03-13T10:20:50;102099.88;;;22.69;25.27
50250;BME280;36133;42.522;27.456;2023-03-13T10:23:35;102050.41;;;20.47;28.71
50250;BME280;36133;42.522;27.456;2023-03-13T10:26:02;101883.81;;;21.53;25.81
50250;BME280;36133;42.522;27.456;2023-03-13T10:28:28;102090.09;;;24.53;23.49
50250;BME280;36133;42.522;27.456;2023-03-13T10:31:04;101949.22;;;24.03;23.61
50250;BME280;36133;42.522;27.456;2023-03-13T10:33:33;101967.59;;;20.57;27.06
50250;BME280;36133;42.522;27.456;2023-03-13T10:38:51;101972.28;;;22.75;25.51
50250;BME280;36133;42.522;27.456;2023-03-13T10:41:22;102082.16;;;23.53;25.16
50250;BME280;36133;42.522;27.456;2023-03-13T10:43:52;102044.38;;;24.74;22.98
50250;BME280;36133;42.522;27.456;2023-03-13T10:46:30;102061.84;;;21.26;27.72
50250;BME280;36133;42.522;27.456;2023-03-13T10:49:00;102064.84;;;21.43;27.63
50250;BME280;36133;42.522;27.456;2023-03-13T10:51:39;102059.78;;;22.73;25.82
50250;BME280;36133;42.522;27.456;2023-03-13T10:54:22;102065.63;;;21.50;26.68
50250;BME280;36133;42.522;27.456;2023-03-13T10:56:49;102060.44;;;22.87;24.88
50250;BME280;36133;42.522;27.456;2023-03-13T10:59:24;102047.66;;;22.02;26.00
50250;BME280;36133;42.522;27.456;2023-03-13T11:01:52;102038.66;;;23.44;24.83
50250;BME280;36133;42.522;27.456;2023-03-13T11:04:38;102060.22;;;23.35;25.47
50250;BME280;36133;42.522;27.456;2023-03-13T11:07:04;102039.84;;;23.48;25.11
50250;BME280;36133;42.522;27.456;2023-03-13T11:09:30;102052.69;;;23.30;25.17
50250;BME280;36133;42.522;27.456;2023-03-13T11:12:16;102050.84;;;21.69;27.52
50250;BME280;36133;42.522;27.456;2023-03-13T11:14:44;101992.53;;;21.79;25.90
50250;BME280;36133;42.522;27.456;2023-03-13T11:17:21;102052.97;;;21.24;26.74
50250;BME280;36133;42.522;27.456;2023-03-13T11:28:12;102034.81;;;20.35;29.57
50250;BME280;36133;42.522;27.456;2023-03-13T11:34:10;101895.31;;;21.61;26.94
50250;BME280;36133;42.522;27.456;2023-03-13T11:45:38;102021.34;;;22.55;26.25
50250;BME280;36133;42.522;27.456;2023-03-13T11:51:26;101992.00;;;21.88;26.62
50250;BME280;36133;42.522;27.456;2023-03-13T11:54:03;101909.03;;;20.45;26.91
50250;BME280;36133;42.522;27.456;2023-03-13T11:56:57;102019.81;;;21.25;27.62
50250;BME280;36133;42.522;27.456;2023-03-13T12:02:33;101916.16;;;22.76;25.90
50250;BME280;36133;42.522;27.456;2023-03-13T12:05:03;101902.66;;;22.86;25.16
50250;BME280;36133;42.522;27.456;2023-03-13T12:07:53;101903.75;;;20.18;28.84
50250;BME280;36133;42.522;27.456;2023-03-13T12:13:43;102004.47;;;20.36;28.32
50250;BME280;36133;42.522;27.456;2023-03-13T12:16:14;101932.06;;;21.49;26.37
50250;BME280;36133;42.522;27.456;2023-03-13T12:18:44;101988.88;;;19.41;29.49
50250;BME280;36133;42.522;27.456;2023-03-13T12:21:31;101991.09;;;20.15;28.39
50250;BME280;36133;42.522;27.456;2023-03-13T12:27:32;101926.94;;;22.89;25.45
50250;BME280;36133;42.522;27.456;2023-03-13T12:32:13;101878.22;;;20.68;26.27
50250;BME280;36133;42.522;27.456;2023-03-13T12:35:00;101995.47;;;21.65;26.18
50250;BME280;36133;42.522;27.456;2023-03-13T12:40:48;101565.72;;;20.30;24.84
50250;BME280;36133;42.522;27.456;2023-03-13T12:43:21;101984.06;;;22.40;25.08
50250;BME280;36133;42.522;27.456;2023-03-13T12:51:42;101863.31;;;19.82;27.26
50250;BME280;36133;42.522;27.456;2023-03-13T12:59:39;101978.19;;;18.60;30.36
50250;BME280;36133;42.522;27.456;2023-03-13T13:02:16;101791.97;;;18.81;27.84
50250;BME280;36133;42.522;27.456;2023-03-13T13:04:45;101964.59;;;20.02;27.78
50250;BME280;36133;42.522;27.456;2023-03-13T13:07:25;102003.88;;;19.12;28.54
50250;BME280;36133;42.522;27.456;2023-03-13T13:12:40;101995.56;;;20.72;26.74
50250;BME280;36133;42.522;27.456;2023-03-13T13:18:15;101992.81;;;21.16;25.93
50250;BME280;36133;42.522;27.456;2023-03-13T13:23:43;101847.84;;;19.12;26.55
50250;BME280;36133;42.522;27.456;2023-03-13T13:36:57;101794.69;;;17.22;28.98
50250;BME280;36133;42.522;27.456;2023-03-13T13:39:48;101962.44;;;18.82;28.86
50250;BME280;36133;42.522;27.456;2023-03-13T13:45:19;101981.81;;;18.80;28.76
50250;BME280;36133;42.522;27.456;2023-03-13T13:47:48;101908.09;;;19.05;28.18
50250;BME280;36133;42.522;27.456;2023-03-13T13:50:28;101977.38;;;20.15;27.50
50250;BME280;36133;42.522;27.456;2023-03-13T13:53:41;101976.31;;;19.07;28.90
50250;BME280;36133;42.522;27.456;2023-03-13T13:56:46;101977.19;;;19.72;28.05
50250;BME280;36133;42.522;27.456;2023-03-13T14:01:48;101784.94;;;16.31;30.67
50250;BME280;36133;42.522;27.456;2023-03-13T14:04:27;101984.09;;;18.63;30.05
50250;BME280;36133;42.522;27.456;2023-03-13T14:06:58;101854.47;;;17.78;29.99
50250;BME280;36133;42.522;27.456;2023-03-13T14:12:28;101908.47;;;16.87;32.00
50250;BME280;36133;42.522;27.456;2023-03-13T14:17:47;101975.38;;;18.00;30.93
50250;BME280;36133;42.522;27.456;2023-03-13T14:22:53;101763.75;;;15.98;31.66
50250;BME280;36133;42.522;27.456;2023-03-13T14:25:20;101897.03;;;17.05;31.38
50250;BME280;36133;42.522;27.456;2023-03-13T14:27:48;101977.06;;;17.12;32.02
50250;BME280;36133;42.522;27.456;2023-03-13T14:30:16;101978.44;;;17.36;32.24
50250;BME280;36133;42.522;27.456;2023-03-13T14:32:42;101976.25;;;16.20;34.43
50250;BME280;36133;42.522;27.456;2023-03-13T14:35:10;101922.03;;;15.67;34.79